sensor_id;sensor_type;location;lat;lon;timestamp;temperature;humidity
17599;DHT22;8918;52.092;5.232;2024-03-08T00:01:48;3.50;99.90
17599;DHT22;8918;52.092;5.232;2024-03-08T00:04:13;3.50;99.90
17599;DHT22;8918;52.092;5.232;2024-03-08T00:06:42;3.40;99.90
17599;DHT22;8918;52.092;5.232;2024-03-08T00:09:09;3.40;99.90
17599;DHT22;8918;52.092;5.232;2024-03-08T00:11:35;3.40;99.90
17599;DHT22;8918;52.092;5.232;2024-03-08T00:14:00;3.40;99.90
17599;DHT22;8918;52.092;5.232;2024-03-08T00:16:26;3.30;99.90
17599;DHT22;8918;52.092;5.232;2024-03-08T00:18:53;3.30;99.90
17599;DHT22;8918;52.092;5.232;2024-03-08T00:21:18;3.30;99.90
17599;DHT22;8918;52.092;5.232;2024-03-08T00:23:44;3.30;99.90
17599;DHT22;8918;52.092;5.232;2024-03-08T00:26:09;3.30;99.90
17599;DHT22;8918;52.092;5.232;2024-03-08T00:28:35;3.20;99.90
17599;DHT22;8918;52.092;5.232;2024-03-08T00:31:01;3.20;99.90
17599;DHT22;8918;52.092;5.232;2024-03-08T00:33:27;3.20;99.90
17599;DHT22;8918;52.092;5.232;2024-03-08T00:35:56;3.20;99.90
17599;DHT22;8918;52.092;5.232;2024-03-08T00:38:22;3.20;99.90
17599;DHT22;8918;52.092;5.232;2024-03-08T00:40:48;3.20;99.90
17599;DHT22;8918;52.092;5.232;2024-03-08T00:43:14;3.10;99.90
17599;DHT22;8918;52.092;5.232;2024-03-08T00:45:41;3.10;99.90
17599;DHT22;8918;52.092;5.232;2024-03-08T00:48:08;3.10;99.90
17599;DHT22;8918;52.092;5.232;2024-03-08T00:50:34;3.10;99.90
17599;DHT22;8918;52.092;5.232;2024-03-08T00:52:59;3.10;99.90
17599;DHT22;8918;52.092;5.232;2024-03-08T00:55:25;3.10;99.90
17599;DHT22;8918;52.092;5.232;2024-03-08T00:57:51;3.00;99.90
17599;DHT22;8918;52.092;5.232;2024-03-08T01:00:21;3.10;99.90
17599;DHT22;8918;52.092;5.232;2024-03-08T01:02:47;3.00;99.90
17599;DHT22;8918;52.092;5.232;2024-03-08T01:05:13;3.00;99.90
17599;DHT22;8918;52.092;5.232;2024-03-08T01:07:39;2.90;99.90
17599;DHT22;8918;52.092;5.232;2024-03-08T01:10:05;2.90;99.90
17599;DHT22;8918;52.092;5.232;2024-03-08T01:12:35;2.90;99.90
17599;DHT22;8918;52.092;5.232;2024-03-08T01:15:00;2.90;99.90
17599;DHT22;8918;52.092;5.232;2024-03-08T01:17:26;2.90;99.90
17599;DHT22;8918;52.092;5.232;2024-03-08T01:19:52;2.90;99.90
17599;DHT22;8918;52.092;5.232;2024-03-08T01:22:18;2.80;99.90
17599;DHT22;8918;52.092;5.232;2024-03-08T01:24:44;2.80;99.90
17599;DHT22;8918;52.092;5.232;2024-03-08T01:27:10;2.80;99.90
17599;DHT22;8918;52.092;5.232;2024-03-08T01:29:36;2.80;99.90
17599;DHT22;8918;52.092;5.232;2024-03-08T01:32:01;2.80;99.90
17599;DHT22;8918;52.092;5.232;2024-03-08T01:34:27;2.70;99.90
17599;DHT22;8918;52.092;5.232;2024-03-08T01:36:54;2.70;99.90
17599;DHT22;8918;52.092;5.232;2024-03-08T01:39:21;2.60;99.90
17599;DHT22;8918;52.092;5.232;2024-03-08T01:41:47;2.60;99.90
17599;DHT22;8918;52.092;5.232;2024-03-08T01:44:13;2.60;99.90
17599;DHT22;8918;52.092;5.232;2024-03-08T01:46:46;2.60;99.90
17599;DHT22;8918;52.092;5.232;2024-03-08T01:49:13;2.60;99.90
17599;DHT22;8918;52.092;5.232;2024-03-08T01:51:40;2.60;99.90
17599;DHT22;8918;52.092;5.232;2024-03-08T01:54:07;2.50;99.90
17599;DHT22;8918;52.092;5.232;2024-03-08T01:56:35;2.50;99.90
17599;DHT22;8918;52.092;5.232;2024-03-08T01:59:01;2.50;99.90
17599;DHT22;8918;52.092;5.232;2024-03-08T02:01:27;2.50;99.90
17599;DHT22;8918;52.092;5.232;2024-03-08T02:03:54;2.50;99.90
17599;DHT22;8918;52.092;5.232;2024-03-08T02:06:19;2.40;99.90
17599;DHT22;8918;52.092;5.232;2024-03-08T02:08:46;2.40;99.90
17599;DHT22;8918;52.092;5.232;2024-03-08T02:11:12;2.40;99.90
17599;DHT22;8918;52.092;5.232;2024-03-08T02:13:38;2.40;99.90
17599;DHT22;8918;52.092;5.232;2024-03-08T02:16:04;2.40;99.90
17599;DHT22;8918;52.092;5.232;2024-03-08T02:18:33;2.30;99.90
17599;DHT22;8918;52.092;5.232;2024-03-08T02:21:01;2.30;99.90
17599;DHT22;8918;52.092;5.232;2024-03-08T02:23:27;2.30;99.90
17599;DHT22;8918;52.092;5.232;2024-03-08T02:25:54;2.30;99.90
17599;DHT22;8918;52.092;5.232;2024-03-08T02:28:21;2.20;99.90
17599;DHT22;8918;52.092;5.232;2024-03-08T02:30:47;2.20;99.90
17599;DHT22;8918;52.092;5.232;2024-03-08T02:33:17;2.20;99.90
17599;DHT22;8918;52.092;5.232;2024-03-08T02:35:45;2.10;99.90
17599;DHT22;8918;52.092;5.232;2024-03-08T02:38:16;2.10;99.90
17599;DHT22;8918;52.092;5.232;2024-03-08T02:40:46;2.10;99.90
17599;DHT22;8918;52.092;5.232;2024-03-08T02:43:12;2.10;99.90
17599;DHT22;8918;52.092;5.232;2024-03-08T02:45:38;2.00;99.90
17599;DHT22;8918;52.092;5.232;2024-03-08T02:48:04;2.10;99.90
17599;DHT22;8918;52.092;5.232;2024-03-08T02:50:32;2.10;99.90
17599;DHT22;8918;52.092;5.232;2024-03-08T02:52:57;2.00;99.90
17599;DHT22;8918;52.092;5.232;2024-03-08T02:55:23;2.00;99.90
17599;DHT22;8918;52.092;5.232;2024-03-08T02:57:51;2.00;99.90
17599;DHT22;8918;52.092;5.232;2024-03-08T03:00:17;2.00;99.90
17599;DHT22;8918;52.092;5.232;2024-03-08T03:02:45;1.90;99.90
17599;DHT22;8918;52.092;5.232;2024-03-08T03:05:11;1.90;99.90
17599;DHT22;8918;52.092;5.232;2024-03-08T03:07:37;1.90;99.90
17599;DHT22;8918;52.092;5.232;2024-03-08T03:10:03;1.90;99.90
17599;DHT22;8918;52.092;5.232;2024-03-08T03:12:30;1.90;99.90
17599;DHT22;8918;52.092;5.232;2024-03-08T03:14:59;1.90;99.90
17599;DHT22;8918;52.092;5.232;2024-03-08T03:17:26;1.90;99.90
17599;DHT22;8918;52.092;5.232;2024-03-08T03:19:52;1.80;99.90
17599;DHT22;8918;52.092;5.232;2024-03-08T03:22:18;1.90;99.90
17599;DHT22;8918;52.092;5.232;2024-03-08T03:24:47;1.80;99.90
17599;DHT22;8918;52.092;5.232;2024-03-08T03:27:13;1.80;99.90
17599;DHT22;8918;52.092;5.232;2024-03-08T03:29:41;1.80;99.90
17599;DHT22;8918;52.092;5.232;2024-03-08T03:32:15;1.80;99.90
17599;DHT22;8918;52.092;5.232;2024-03-08T03:34:40;1.80;99.90
17599;DHT22;8918;52.092;5.232;2024-03-08T03:37:07;1.80;99.90
17599;DHT22;8918;52.092;5.232;2024-03-08T03:39:39;1.70;99.90
17599;DHT22;8918;52.092;5.232;2024-03-08T03:42:18;1.70;99.90
17599;DHT22;8918;52.092;5.232;2024-03-08T03:44:47;1.60;99.90
17599;DHT22;8918;52.092;5.232;2024-03-08T03:47:14;1.70;99.90
17599;DHT22;8918;52.092;5.232;2024-03-08T03:49:41;1.60;99.90
17599;DHT22;8918;52.092;5.232;2024-03-08T03:52:06;1.70;99.90
17599;DHT22;8918;52.092;5.232;2024-03-08T03:54:32;1.70;99.90
17599;DHT22;8918;52.092;5.232;2024-03-08T03:56:58;1.70;99.90
17599;DHT22;8918;52.092;5.232;2024-03-08T03:59:24;1.60;99.90
17599;DHT22;8918;52.092;5.232;2024-03-08T04:01:49;1.60;99.90
17599;DHT22;8918;52.092;5.232;2024-03-08T04:04:15;1.60;99.90
17599;DHT22;8918;52.092;5.232;2024-03-08T04:06:41;1.60;99.90
17599;DHT22;8918;52.092;5.232;2024-03-08T04:09:07;1.60;99.90
17599;DHT22;8918;52.092;5.232;2024-03-08T04:11:33;1.60;99.90
17599;DHT22;8918;52.092;5.232;2024-03-08T04:13:58;1.60;99.90
17599;DHT22;8918;52.092;5.232;2024-03-08T04:16:24;1.60;99.90
17599;DHT22;8918;52.092;5.232;2024-03-08T04:18:51;1.60;99.90
17599;DHT22;8918;52.092;5.232;2024-03-08T04:21:17;1.50;99.90
17599;DHT22;8918;52.092;5.232;2024-03-08T04:23:44;1.50;99.90
17599;DHT22;8918;52.092;5.232;2024-03-08T04:26:10;1.50;99.90
17599;DHT22;8918;52.092;5.232;2024-03-08T04:28:36;1.50;99.90
17599;DHT22;8918;52.092;5.232;2024-03-08T04:31:03;1.50;99.90
17599;DHT22;8918;52.092;5.232;2024-03-08T04:33:28;1.40;99.90
17599;DHT22;8918;52.092;5.232;2024-03-08T04:35:54;1.40;99.90
17599;DHT22;8918;52.092;5.232;2024-03-08T04:38:20;1.40;99.90
17599;DHT22;8918;52.092;5.232;2024-03-08T04:40:45;1.40;99.90
17599;DHT22;8918;52.092;5.232;2024-03-08T04:43:11;1.40;99.90
17599;DHT22;8918;52.092;5.232;2024-03-08T04:45:37;1.40;99.90
17599;DHT22;8918;52.092;5.232;2024-03-08T04:48:03;1.40;99.90
17599;DHT22;8918;52.092;5.232;2024-03-08T04:50:28;1.40;99.90
17599;DHT22;8918;52.092;5.232;2024-03-08T04:52:55;1.40;99.90
17599;DHT22;8918;52.092;5.232;2024-03-08T04:55:20;1.40;99.90
17599;DHT22;8918;52.092;5.232;2024-03-08T04:57:47;1.40;99.90
17599;DHT22;8918;52.092;5.232;2024-03-08T05:00:13;1.40;99.90
17599;DHT22;8918;52.092;5.232;2024-03-08T05:02:40;1.40;99.90
17599;DHT22;8918;52.092;5.232;2024-03-08T05:05:07;1.40;99.90
17599;DHT22;8918;52.092;5.232;2024-03-08T05:07:34;1.40;99.90
17599;DHT22;8918;52.092;5.232;2024-03-08T05:10:00;1.40;99.90
17599;DHT22;8918;52.092;5.232;2024-03-08T05:12:27;1.40;99.90
17599;DHT22;8918;52.092;5.232;2024-03-08T05:14:53;1.40;99.90
17599;DHT22;8918;52.092;5.232;2024-03-08T05:17:19;1.30;99.90
17599;DHT22;8918;52.092;5.232;2024-03-08T05:19:45;1.30;99.90
17599;DHT22;8918;52.092;5.232;2024-03-08T05:22:10;1.30;99.90
17599;DHT22;8918;52.092;5.232;2024-03-08T05:24:36;1.30;99.90
17599;DHT22;8918;52.092;5.232;2024-03-08T05:27:02;1.30;99.90
17599;DHT22;8918;52.092;5.232;2024-03-08T05:29:29;1.20;99.90
17599;DHT22;8918;52.092;5.232;2024-03-08T05:31:55;1.20;99.90
17599;DHT22;8918;52.092;5.232;2024-03-08T05:34:21;1.20;99.90
17599;DHT22;8918;52.092;5.232;2024-03-08T05:36:48;1.20;99.90
17599;DHT22;8918;52.092;5.232;2024-03-08T05:39:16;1.20;99.90
17599;DHT22;8918;52.092;5.232;2024-03-08T05:41:42;1.30;99.90
17599;DHT22;8918;52.092;5.232;2024-03-08T05:44:09;1.20;99.90
17599;DHT22;8918;52.092;5.232;2024-03-08T05:46:35;1.20;99.90
17599;DHT22;8918;52.092;5.232;2024-03-08T05:49:05;1.20;99.90
17599;DHT22;8918;52.092;5.232;2024-03-08T05:51:35;1.20;99.90
17599;DHT22;8918;52.092;5.232;2024-03-08T05:54:05;1.20;99.90
17599;DHT22;8918;52.092;5.232;2024-03-08T05:56:40;1.10;99.90
17599;DHT22;8918;52.092;5.232;2024-03-08T05:59:09;1.20;99.90
17599;DHT22;8918;52.092;5.232;2024-03-08T06:01:35;1.10;99.90
17599;DHT22;8918;52.092;5.232;2024-03-08T06:04:02;1.10;99.90
17599;DHT22;8918;52.092;5.232;2024-03-08T06:06:28;1.10;99.90
17599;DHT22;8918;52.092;5.232;2024-03-08T06:08:54;1.10;99.90
17599;DHT22;8918;52.092;5.232;2024-03-08T06:11:22;1.00;99.90
17599;DHT22;8918;52.092;5.232;2024-03-08T06:13:48;1.10;99.90
17599;DHT22;8918;52.092;5.232;2024-03-08T06:16:15;1.00;99.90
17599;DHT22;8918;52.092;5.232;2024-03-08T06:18:41;1.00;99.90
17599;DHT22;8918;52.092;5.232;2024-03-08T06:21:07;1.10;99.90
17599;DHT22;8918;52.092;5.232;2024-03-08T06:23:34;1.10;99.90
17599;DHT22;8918;52.092;5.232;2024-03-08T06:26:09;1.10;99.90
17599;DHT22;8918;52.092;5.232;2024-03-08T06:28:35;1.10;99.90
17599;DHT22;8918;52.092;5.232;2024-03-08T06:31:01;1.10;99.90
17599;DHT22;8918;52.092;5.232;2024-03-08T06:33:28;1.10;99.90
17599;DHT22;8918;52.092;5.232;2024-03-08T06:35:54;1.10;99.90
17599;DHT22;8918;52.092;5.232;2024-03-08T06:38:23;1.10;99.90
17599;DHT22;8918;52.092;5.232;2024-03-08T06:40:48;1.20;99.90
17599;DHT22;8918;52.092;5.232;2024-03-08T06:43:14;1.20;99.90
17599;DHT22;8918;52.092;5.232;2024-03-08T06:45:42;1.20;99.90
17599;DHT22;8918;52.092;5.232;2024-03-08T06:48:14;1.20;99.90
17599;DHT22;8918;52.092;5.232;2024-03-08T06:50:40;1.20;99.90
17599;DHT22;8918;52.092;5.232;2024-03-08T06:53:05;1.30;99.90
17599;DHT22;8918;52.092;5.232;2024-03-08T06:55:31;1.30;99.90
17599;DHT22;8918;52.092;5.232;2024-03-08T06:57:58;1.30;99.90
17599;DHT22;8918;52.092;5.232;2024-03-08T07:00:24;1.30;99.90
17599;DHT22;8918;52.092;5.232;2024-03-08T07:02:52;1.40;99.90
17599;DHT22;8918;52.092;5.232;2024-03-08T07:05:19;1.40;99.90
17599;DHT22;8918;52.092;5.232;2024-03-08T07:07:44;1.40;99.90
17599;DHT22;8918;52.092;5.232;2024-03-08T07:10:10;1.50;99.90
17599;DHT22;8918;52.092;5.232;2024-03-08T07:12:39;1.50;99.90
17599;DHT22;8918;52.092;5.232;2024-03-08T07:15:05;1.60;99.90
17599;DHT22;8918;52.092;5.232;2024-03-08T07:17:31;1.70;99.90
17599;DHT22;8918;52.092;5.232;2024-03-08T07:20:00;1.70;99.90
17599;DHT22;8918;52.092;5.232;2024-03-08T07:22:27;1.70;99.90
17599;DHT22;8918;52.092;5.232;2024-03-08T07:24:53;1.80;99.90
17599;DHT22;8918;52.092;5.232;2024-03-08T07:27:36;1.80;99.90
17599;DHT22;8918;52.092;5.232;2024-03-08T07:30:02;1.90;99.90
17599;DHT22;8918;52.092;5.232;2024-03-08T07:32:28;2.00;99.90
17599;DHT22;8918;52.092;5.232;2024-03-08T07:34:55;2.10;99.90
17599;DHT22;8918;52.092;5.232;2024-03-08T07:37:21;2.10;99.90
17599;DHT22;8918;52.092;5.232;2024-03-08T07:39:47;2.20;99.90
17599;DHT22;8918;52.092;5.232;2024-03-08T07:42:13;2.20;99.90
17599;DHT22;8918;52.092;5.232;2024-03-08T07:44:39;2.30;99.90
17599;DHT22;8918;52.092;5.232;2024-03-08T07:47:04;2.30;99.90
17599;DHT22;8918;52.092;5.232;2024-03-08T07:49:30;2.40;99.90
17599;DHT22;8918;52.092;5.232;2024-03-08T07:51:58;2.40;99.90
17599;DHT22;8918;52.092;5.232;2024-03-08T07:54:24;2.50;99.90
17599;DHT22;8918;52.092;5.232;2024-03-08T07:56:51;2.50;99.90
17599;DHT22;8918;52.092;5.232;2024-03-08T07:59:18;2.60;99.90
17599;DHT22;8918;52.092;5.232;2024-03-08T08:01:43;2.70;99.90
17599;DHT22;8918;52.092;5.232;2024-03-08T08:04:10;2.80;99.90
17599;DHT22;8918;52.092;5.232;2024-03-08T08:06:38;2.80;99.90
17599;DHT22;8918;52.092;5.232;2024-03-08T08:09:06;2.90;99.90
17599;DHT22;8918;52.092;5.232;2024-03-08T08:11:42;3.00;99.90
17599;DHT22;8918;52.092;5.232;2024-03-08T08:14:10;3.10;99.90
17599;DHT22;8918;52.092;5.232;2024-03-08T08:16:37;3.10;99.90
17599;DHT22;8918;52.092;5.232;2024-03-08T08:19:03;3.20;99.90
17599;DHT22;8918;52.092;5.232;2024-03-08T08:21:34;3.30;99.90
17599;DHT22;8918;52.092;5.232;2024-03-08T08:24:02;3.40;99.90
17599;DHT22;8918;52.092;5.232;2024-03-08T08:26:29;3.50;99.90
17599;DHT22;8918;52.092;5.232;2024-03-08T08:28:54;3.60;99.90
17599;DHT22;8918;52.092;5.232;2024-03-08T08:31:20;3.60;99.90
17599;DHT22;8918;52.092;5.232;2024-03-08T08:33:46;3.70;99.90
17599;DHT22;8918;52.092;5.232;2024-03-08T08:36:13;3.80;99.90
17599;DHT22;8918;52.092;5.232;2024-03-08T08:38:39;4.00;99.90
17599;DHT22;8918;52.092;5.232;2024-03-08T08:41:04;4.10;99.90
17599;DHT22;8918;52.092;5.232;2024-03-08T08:43:31;4.20;99.90
17599;DHT22;8918;52.092;5.232;2024-03-08T08:45:58;4.30;99.90
17599;DHT22;8918;52.092;5.232;2024-03-08T08:48:24;4.40;99.90
17599;DHT22;8918;52.092;5.232;2024-03-08T08:50:50;4.60;99.90
17599;DHT22;8918;52.092;5.232;2024-03-08T08:53:17;4.70;99.90
17599;DHT22;8918;52.092;5.232;2024-03-08T08:55:43;4.70;99.90
17599;DHT22;8918;52.092;5.232;2024-03-08T08:58:11;4.80;99.90
17599;DHT22;8918;52.092;5.232;2024-03-08T09:00:36;5.00;99.90
17599;DHT22;8918;52.092;5.232;2024-03-08T09:03:02;5.10;99.90
17599;DHT22;8918;52.092;5.232;2024-03-08T09:05:28;5.20;99.90
17599;DHT22;8918;52.092;5.232;2024-03-08T09:07:54;5.30;99.90
17599;DHT22;8918;52.092;5.232;2024-03-08T09:10:20;5.40;99.90
17599;DHT22;8918;52.092;5.232;2024-03-08T09:12:46;5.50;99.90
17599;DHT22;8918;52.092;5.232;2024-03-08T09:15:12;5.70;99.90
17599;DHT22;8918;52.092;5.232;2024-03-08T09:17:38;5.80;99.90
17599;DHT22;8918;52.092;5.232;2024-03-08T09:20:09;5.90;99.90
17599;DHT22;8918;52.092;5.232;2024-03-08T09:22:35;6.00;99.90
17599;DHT22;8918;52.092;5.232;2024-03-08T09:25:01;6.00;99.90
17599;DHT22;8918;52.092;5.232;2024-03-08T09:27:27;6.10;99.90
17599;DHT22;8918;52.092;5.232;2024-03-08T09:29:54;6.20;99.90
17599;DHT22;8918;52.092;5.232;2024-03-08T09:32:20;6.30;99.90
17599;DHT22;8918;52.092;5.232;2024-03-08T09:34:45;6.50;99.90
17599;DHT22;8918;52.092;5.232;2024-03-08T09:37:11;6.60;99.90
17599;DHT22;8918;52.092;5.232;2024-03-08T09:39:37;6.70;99.90
17599;DHT22;8918;52.092;5.232;2024-03-08T09:42:03;6.90;99.90
17599;DHT22;8918;52.092;5.232;2024-03-08T09:44:29;7.10;99.90
17599;DHT22;8918;52.092;5.232;2024-03-08T09:46:55;7.20;99.90
17599;DHT22;8918;52.092;5.232;2024-03-08T09:49:21;7.30;99.90
17599;DHT22;8918;52.092;5.232;2024-03-08T09:51:46;7.50;99.90
17599;DHT22;8918;52.092;5.232;2024-03-08T09:54:12;7.60;99.90
17599;DHT22;8918;52.092;5.232;2024-03-08T09:56:39;7.80;99.90
17599;DHT22;8918;52.092;5.232;2024-03-08T09:59:07;7.90;99.90
17599;DHT22;8918;52.092;5.232;2024-03-08T10:01:51;8.20;99.90
17599;DHT22;8918;52.092;5.232;2024-03-08T10:04:17;8.40;99.90
17599;DHT22;8918;52.092;5.232;2024-03-08T10:06:43;8.60;99.90
17599;DHT22;8918;52.092;5.232;2024-03-08T10:09:12;8.70;99.90
17599;DHT22;8918;52.092;5.232;2024-03-08T10:11:39;8.80;99.90
17599;DHT22;8918;52.092;5.232;2024-03-08T10:14:05;8.90;99.90
17599;DHT22;8918;52.092;5.232;2024-03-08T10:16:33;9.10;99.90
17599;DHT22;8918;52.092;5.232;2024-03-08T10:19:00;9.20;99.90
17599;DHT22;8918;52.092;5.232;2024-03-08T10:21:26;9.20;99.90
17599;DHT22;8918;52.092;5.232;2024-03-08T10:23:52;9.40;99.90
17599;DHT22;8918;52.092;5.232;2024-03-08T10:26:18;9.60;99.90
17599;DHT22;8918;52.092;5.232;2024-03-08T10:28:48;9.70;99.90
17599;DHT22;8918;52.092;5.232;2024-03-08T10:31:18;9.80;99.90
17599;DHT22;8918;52.092;5.232;2024-03-08T10:33:44;9.90;99.90
17599;DHT22;8918;52.092;5.232;2024-03-08T10:36:14;10.00;99.90
17599;DHT22;8918;52.092;5.232;2024-03-08T10:38:42;10.10;99.90
17599;DHT22;8918;52.092;5.232;2024-03-08T10:41:09;10.30;99.90
17599;DHT22;8918;52.092;5.232;2024-03-08T10:46:34;11.30;99.90
17599;DHT22;8918;52.092;5.232;2024-03-08T10:49:09;13.00;99.90
17599;DHT22;8918;52.092;5.232;2024-03-08T10:51:37;14.50;99.90
17599;DHT22;8918;52.092;5.232;2024-03-08T10:54:04;15.70;99.90
17599;DHT22;8918;52.092;5.232;2024-03-08T10:56:32;16.60;99.90
17599;DHT22;8918;52.092;5.232;2024-03-08T10:58:58;17.30;99.50
17599;DHT22;8918;52.092;5.232;2024-03-08T11:01:23;17.60;99.90
17599;DHT22;8918;52.092;5.232;2024-03-08T11:03:51;17.90;98.30
17599;DHT22;8918;52.092;5.232;2024-03-08T11:08:57;18.60;96.80
17599;DHT22;8918;52.092;5.232;2024-03-08T11:11:31;18.60;96.10
17599;DHT22;8918;52.092;5.232;2024-03-08T11:13:58;19.10;95.30
17599;DHT22;8918;52.092;5.232;2024-03-08T11:21:37;18.30;95.00
17599;DHT22;8918;52.092;5.232;2024-03-08T11:24:06;18.20;95.60
17599;DHT22;8918;52.092;5.232;2024-03-08T11:26:33;18.00;95.50
17599;DHT22;8918;52.092;5.232;2024-03-08T11:32:26;17.90;95.50
17599;DHT22;8918;52.092;5.232;2024-03-08T11:34:53;18.00;95.10
17599;DHT22;8918;52.092;5.232;2024-03-08T11:37:20;18.60;94.70
17599;DHT22;8918;52.092;5.232;2024-03-08T11:39:54;18.70;94.30
17599;DHT22;8918;52.092;5.232;2024-03-08T11:42:24;18.70;93.40
17599;DHT22;8918;52.092;5.232;2024-03-08T11:44:51;18.50;94.20
17599;DHT22;8918;52.092;5.232;2024-03-08T11:47:18;18.30;94.40
17599;DHT22;8918;52.092;5.232;2024-03-08T11:49:43;18.40;93.70
17599;DHT22;8918;52.092;5.232;2024-03-08T11:52:15;18.80;93.90
17599;DHT22;8918;52.092;5.232;2024-03-08T11:54:42;19.00;93.70
17599;DHT22;8918;52.092;5.232;2024-03-08T11:57:09;19.50;92.70
17599;DHT22;8918;52.092;5.232;2024-03-08T11:59:35;19.70;92.50
17599;DHT22;8918;52.092;5.232;2024-03-08T12:02:03;19.50;91.90
17599;DHT22;8918;52.092;5.232;2024-03-08T12:04:30;19.00;91.90
17599;DHT22;8918;52.092;5.232;2024-03-08T12:06:58;19.30;91.60
17599;DHT22;8918;52.092;5.232;2024-03-08T12:09:24;19.40;91.20
17599;DHT22;8918;52.092;5.232;2024-03-08T12:11:51;19.50;91.00
17599;DHT22;8918;52.092;5.232;2024-03-08T12:14:17;19.70;91.40
17599;DHT22;8918;52.092;5.232;2024-03-08T12:16:43;20.30;90.70
17599;DHT22;8918;52.092;5.232;2024-03-08T12:19:09;20.70;90.20
17599;DHT22;8918;52.092;5.232;2024-03-08T12:21:35;20.80;88.00
17599;DHT22;8918;52.092;5.232;2024-03-08T12:24:06;20.70;86.90
17599;DHT22;8918;52.092;5.232;2024-03-08T12:26:38;20.00;87.20
17599;DHT22;8918;52.092;5.232;2024-03-08T12:29:24;19.70;89.20
17599;DHT22;8918;52.092;5.232;2024-03-08T12:31:51;19.00;88.80
17599;DHT22;8918;52.092;5.232;2024-03-08T12:34:18;19.00;90.30
17599;DHT22;8918;52.092;5.232;2024-03-08T12:36:47;19.10;89.00
17599;DHT22;8918;52.092;5.232;2024-03-08T12:39:17;19.30;90.10
17599;DHT22;8918;52.092;5.232;2024-03-08T12:41:48;19.80;89.00
17599;DHT22;8918;52.092;5.232;2024-03-08T12:44:13;19.50;88.40
17599;DHT22;8918;52.092;5.232;2024-03-08T12:46:39;18.90;90.00
17599;DHT22;8918;52.092;5.232;2024-03-08T12:49:10;18.90;90.40
17599;DHT22;8918;52.092;5.232;2024-03-08T12:51:38;18.50;91.00
17599;DHT22;8918;52.092;5.232;2024-03-08T12:54:04;17.70;91.70
17599;DHT22;8918;52.092;5.232;2024-03-08T12:56:34;17.80;91.30
17599;DHT22;8918;52.092;5.232;2024-03-08T12:59:00;17.60;91.20
17599;DHT22;8918;52.092;5.232;2024-03-08T13:01:27;17.90;91.70
17599;DHT22;8918;52.092;5.232;2024-03-08T13:03:55;17.80;92.50
17599;DHT22;8918;52.092;5.232;2024-03-08T13:06:22;17.70;91.20
17599;DHT22;8918;52.092;5.232;2024-03-08T13:08:50;17.30;91.50
17599;DHT22;8918;52.092;5.232;2024-03-08T13:11:17;16.70;92.20
17599;DHT22;8918;52.092;5.232;2024-03-08T13:13:45;16.20;92.20
17599;DHT22;8918;52.092;5.232;2024-03-08T13:16:10;16.30;92.90
17599;DHT22;8918;52.092;5.232;2024-03-08T13:18:40;16.10;92.20
17599;DHT22;8918;52.092;5.232;2024-03-08T13:21:07;15.90;92.90
17599;DHT22;8918;52.092;5.232;2024-03-08T13:23:35;16.10;93.00
17599;DHT22;8918;52.092;5.232;2024-03-08T13:26:12;16.10;92.70
17599;DHT22;8918;52.092;5.232;2024-03-08T13:28:50;16.70;92.90
17599;DHT22;8918;52.092;5.232;2024-03-08T13:31:22;17.10;92.20
17599;DHT22;8918;52.092;5.232;2024-03-08T13:33:48;17.10;92.00
17599;DHT22;8918;52.092;5.232;2024-03-08T13:36:14;17.10;91.70
17599;DHT22;8918;52.092;5.232;2024-03-08T13:38:49;16.80;91.70
17599;DHT22;8918;52.092;5.232;2024-03-08T13:41:15;16.30;92.60
17599;DHT22;8918;52.092;5.232;2024-03-08T13:43:42;16.20;93.50
17599;DHT22;8918;52.092;5.232;2024-03-08T13:46:08;16.10;93.60
17599;DHT22;8918;52.092;5.232;2024-03-08T13:48:35;15.60;93.30
17599;DHT22;8918;52.092;5.232;2024-03-08T13:51:03;15.50;94.00
17599;DHT22;8918;52.092;5.232;2024-03-08T13:53:30;15.30;94.40
17599;DHT22;8918;52.092;5.232;2024-03-08T13:55:55;15.40;94.10
17599;DHT22;8918;52.092;5.232;2024-03-08T13:58:22;15.60;94.00
17599;DHT22;8918;52.092;5.232;2024-03-08T14:00:47;15.70;94.10
17599;DHT22;8918;52.092;5.232;2024-03-08T14:03:13;16.40;93.20
17599;DHT22;8918;52.092;5.232;2024-03-08T14:05:42;16.70;93.20
17599;DHT22;8918;52.092;5.232;2024-03-08T14:08:08;16.90;93.70
17599;DHT22;8918;52.092;5.232;2024-03-08T14:10:34;17.00;92.80
17599;DHT22;8918;52.092;5.232;2024-03-08T14:13:00;16.40;92.90
17599;DHT22;8918;52.092;5.232;2024-03-08T14:15:28;16.20;93.60
17599;DHT22;8918;52.092;5.232;2024-03-08T14:17:54;16.10;93.80
17599;DHT22;8918;52.092;5.232;2024-03-08T14:20:21;15.80;94.20
17599;DHT22;8918;52.092;5.232;2024-03-08T14:22:56;15.30;94.70
17599;DHT22;8918;52.092;5.232;2024-03-08T14:25:22;15.10;94.90
17599;DHT22;8918;52.092;5.232;2024-03-08T14:27:50;14.90;94.70
17599;DHT22;8918;52.092;5.232;2024-03-08T14:30:15;14.50;95.50
17599;DHT22;8918;52.092;5.232;2024-03-08T14:32:58;14.40;95.90
17599;DHT22;8918;52.092;5.232;2024-03-08T14:35:25;14.20;95.90
17599;DHT22;8918;52.092;5.232;2024-03-08T14:37:51;14.00;96.50
17599;DHT22;8918;52.092;5.232;2024-03-08T14:40:17;13.90;96.30
17599;DHT22;8918;52.092;5.232;2024-03-08T14:42:48;13.90;96.60
17599;DHT22;8918;52.092;5.232;2024-03-08T14:45:15;13.70;97.20
17599;DHT22;8918;52.092;5.232;2024-03-08T14:47:40;13.70;97.20
17599;DHT22;8918;52.092;5.232;2024-03-08T14:50:06;13.60;96.80
17599;DHT22;8918;52.092;5.232;2024-03-08T14:52:32;13.30;97.50
17599;DHT22;8918;52.092;5.232;2024-03-08T14:54:58;13.20;97.90
17599;DHT22;8918;52.092;5.232;2024-03-08T14:57:23;13.20;98.10
17599;DHT22;8918;52.092;5.232;2024-03-08T14:59:49;13.10;98.60
17599;DHT22;8918;52.092;5.232;2024-03-08T15:02:15;13.20;98.60
17599;DHT22;8918;52.092;5.232;2024-03-08T15:04:42;13.20;98.80
17599;DHT22;8918;52.092;5.232;2024-03-08T15:07:08;13.30;98.00
17599;DHT22;8918;52.092;5.232;2024-03-08T15:09:35;13.50;97.60
17599;DHT22;8918;52.092;5.232;2024-03-08T15:12:06;13.80;98.00
17599;DHT22;8918;52.092;5.232;2024-03-08T15:14:32;13.90;97.50
17599;DHT22;8918;52.092;5.232;2024-03-08T15:16:58;13.90;97.70
17599;DHT22;8918;52.092;5.232;2024-03-08T15:19:24;13.70;97.80
17599;DHT22;8918;52.092;5.232;2024-03-08T15:21:50;13.60;98.00
17599;DHT22;8918;52.092;5.232;2024-03-08T15:24:20;13.60;98.40
17599;DHT22;8918;52.092;5.232;2024-03-08T15:26:47;13.50;98.40
17599;DHT22;8918;52.092;5.232;2024-03-08T15:29:16;13.50;98.30
17599;DHT22;8918;52.092;5.232;2024-03-08T15:31:49;13.40;97.90
17599;DHT22;8918;52.092;5.232;2024-03-08T15:34:17;13.20;98.60
17599;DHT22;8918;52.092;5.232;2024-03-08T15:36:46;13.10;99.00
17599;DHT22;8918;52.092;5.232;2024-03-08T15:39:16;12.80;98.50
17599;DHT22;8918;52.092;5.232;2024-03-08T15:41:42;12.90;99.10
17599;DHT22;8918;52.092;5.232;2024-03-08T15:44:09;13.00;98.60
17599;DHT22;8918;52.092;5.232;2024-03-08T15:46:37;13.10;99.00
17599;DHT22;8918;52.092;5.232;2024-03-08T15:49:05;13.10;98.90
17599;DHT22;8918;52.092;5.232;2024-03-08T15:51:31;13.20;99.00
17599;DHT22;8918;52.092;5.232;2024-03-08T15:53:58;13.20;98.80
17599;DHT22;8918;52.092;5.232;2024-03-08T15:56:24;13.20;98.90
17599;DHT22;8918;52.092;5.232;2024-03-08T15:58:50;13.20;99.30
17599;DHT22;8918;52.092;5.232;2024-03-08T16:01:20;13.10;99.50
17599;DHT22;8918;52.092;5.232;2024-03-08T16:03:47;13.00;99.50
17599;DHT22;8918;52.092;5.232;2024-03-08T16:06:16;12.90;99.90
17599;DHT22;8918;52.092;5.232;2024-03-08T16:08:47;12.60;99.70
17599;DHT22;8918;52.092;5.232;2024-03-08T16:11:13;12.30;99.90